Time;durP1;ratioP1;P1;durP2;ratioP2;P2;SDS_P1;SDS_P2;PMS_P1;PMS_P2;Temp;Humidity;BMP_temperature;BMP_pressure;BME280_temperature;BME280_humidity;BME280_pressure;Samples;Min_cycle;Max_cycle;Signal;HPM_P1;HPM_P2
2023/09/28 00:00:49;;;;;;;10.95;8.10;;;18.10;99.90;;;;;;5068362;28;20045;-70
2023/09/28 00:03:15;;;;;;;12.10;8.52;;;18.10;99.90;;;;;;5064490;28;20047;-70
2023/09/28 00:05:41;;;;;;;13.32;8.95;;;18.10;99.90;;;;;;5067626;28;20029;-70
2023/09/28 00:08:07;;;;;;;11.27;8.18;;;18.10;99.90;;;;;;5069220;28;20123;-70
2023/09/28 00:10:33;;;;;;;12.55;8.73;;;18.10;99.90;;;;;;5071623;28;20044;-70
2023/09/28 00:12:59;;;;;;;11.93;8.50;;;18.10;99.90;;;;;;5066710;28;20098;-70
2023/09/28 00:15:25;;;;;;;12.68;8.68;;;18.10;99.90;;;;;;5073070;28;20048;-70
2023/09/28 00:17:51;;;;;;;13.05;8.80;;;18.10;99.90;;;;;;5071166;28;20387;-70
2023/09/28 00:20:19;;;;;;;11.63;8.30;;;18.10;99.90;;;;;;5071768;28;20150;-70
2023/09/28 00:22:46;;;;;;;10.23;8.13;;;18.10;99.90;;;;;;5066753;28;20037;-70
2023/09/28 00:25:13;;;;;;;12.32;8.98;;;18.10;99.90;;;;;;5071092;28;20036;-70
2023/09/28 00:27:39;;;;;;;14.82;9.02;;;18.10;99.90;;;;;;5068898;28;20071;-70
2023/09/28 00:30:09;;;;;;;13.20;8.52;;;18.10;99.90;;;;;;5065069;28;20094;-70
2023/09/28 00:32:35;;;;;;;10.55;8.65;;;18.10;99.90;;;;;;5065787;28;20487;-70
2023/09/28 00:35:04;;;;;;;11.30;8.20;;;18.10;99.90;;;;;;5068450;28;20051;-70
2023/09/28 00:37:30;;;;;;;11.82;8.95;;;18.10;99.90;;;;;;5067869;28;20032;-70
2023/09/28 00:39:55;;;;;;;11.57;7.80;;;18.10;99.90;;;;;;5067090;28;20060;-70
2023/09/28 00:42:22;;;;;;;12.50;8.13;;;18.10;99.90;;;;;;5066600;28;20475;-70
2023/09/28 00:44:48;;;;;;;10.60;7.90;;;18.10;99.90;;;;;;5069208;28;20040;-70
2023/09/28 00:47:14;;;;;;;12.30;7.70;;;18.10;99.90;;;;;;5071474;28;20044;-70
2023/09/28 00:49:42;;;;;;;11.32;8.02;;;18.10;99.90;;;;;;5072775;28;20396;-70
2023/09/28 00:52:08;;;;;;;11.00;8.00;;;18.10;99.90;;;;;;5067713;28;20115;-70
2023/09/28 00:54:35;;;;;;;9.68;7.47;;;18.10;99.90;;;;;;5072396;28;20115;-70
2023/09/28 00:57:00;;;;;;;10.80;7.35;;;18.10;99.90;;;;;;5069626;28;20041;-70
2023/09/28 00:59:26;;;;;;;8.55;6.95;;;18.00;99.90;;;;;;5071334;28;20402;-70
2023/09/28 01:01:54;;;;;;;11.10;7.38;;;18.00;99.90;;;;;;5068684;28;20036;-70
2023/09/28 01:04:22;;;;;;;9.00;7.15;;;18.00;99.90;;;;;;5070194;28;20075;-70
2023/09/28 01:06:48;;;;;;;11.18;7.72;;;18.00;99.90;;;;;;5064026;28;20037;-70
2023/09/28 01:09:15;;;;;;;9.27;7.00;;;18.00;99.90;;;;;;5067965;28;20094;-70
2023/09/28 01:11:41;;;;;;;10.20;7.13;;;18.00;99.90;;;;;;5067173;28;20049;-70
2023/09/28 01:14:07;;;;;;;9.77;6.25;;;18.00;99.90;;;;;;5072239;28;20399;-70
2023/09/28 01:16:33;;;;;;;10.85;6.70;;;18.00;99.90;;;;;;5060639;28;20025;-70
2023/09/28 01:18:59;;;;;;;10.13;6.60;;;18.10;99.90;;;;;;5072567;28;20170;-70
2023/09/28 01:21:25;;;;;;;9.93;6.45;;;18.10;99.90;;;;;;5067416;28;20039;-70
2023/09/28 01:23:51;;;;;;;9.15;6.30;;;18.10;99.90;;;;;;5066123;28;20033;-70
2023/09/28 01:26:17;;;;;;;8.57;6.38;;;18.10;99.90;;;;;;5072783;28;20041;-70
2023/09/28 01:28:43;;;;;;;10.95;6.50;;;18.00;99.90;;;;;;5067854;28;20033;-70
2023/09/28 01:31:08;;;;;;;8.95;6.22;;;18.10;99.90;;;;;;5066628;28;20513;-70
2023/09/28 01:33:34;;;;;;;10.15;7.05;;;18.10;99.90;;;;;;5065479;28;20498;-70
2023/09/28 01:35:59;;;;;;;12.55;6.82;;;18.10;99.90;;;;;;5070525;28;20048;-70
2023/09/28 01:38:48;;;;;;;11.13;6.45;;;18.00;99.90;;;;;;5066358;28;20402;-70
2023/09/28 01:41:14;;;;;;;10.00;6.63;;;18.00;99.90;;;;;;5066164;28;20053;-70
2023/09/28 01:43:40;;;;;;;8.65;6.63;;;18.00;99.90;;;;;;5065314;28;20497;-70
2023/09/28 01:46:05;;;;;;;10.55;6.60;;;17.90;99.90;;;;;;5066141;28;20032;-70
2023/09/28 01:48:31;;;;;;;8.63;6.72;;;17.90;99.90;;;;;;5066470;28;20086;-70
2023/09/28 01:50:57;;;;;;;9.68;6.80;;;17.90;99.90;;;;;;5059470;28;20324;-70
2023/09/28 01:53:23;;;;;;;8.20;6.45;;;17.80;99.90;;;;;;5062736;28;20094;-70
2023/09/28 01:55:48;;;;;;;11.80;6.78;;;17.80;99.90;;;;;;5057349;28;20037;-70
2023/09/28 01:58:14;;;;;;;8.95;6.95;;;17.70;99.90;;;;;;5065168;28;20545;-70
2023/09/28 02:00:44;;;;;;;9.63;7.10;;;17.70;99.90;;;;;;5065871;28;20041;-70
2023/09/28 02:03:10;;;;;;;8.68;6.50;;;17.60;99.90;;;;;;5065595;28;20037;-70
2023/09/28 02:05:35;;;;;;;8.88;6.93;;;17.60;99.90;;;;;;5060826;28;20532;-70
2023/09/28 02:08:02;;;;;;;11.43;6.50;;;17.50;99.90;;;;;;5061247;28;20064;-70
2023/09/28 02:10:28;;;;;;;8.48;6.80;;;17.60;99.90;;;;;;5058704;28;20051;-70
2023/09/28 02:12:55;;;;;;;10.60;7.07;;;17.50;99.90;;;;;;5071421;28;20402;-70
2023/09/28 02:15:22;;;;;;;12.77;6.85;;;17.50;99.90;;;;;;5069096;28;20048;-70
2023/09/28 02:17:48;;;;;;;8.88;7.00;;;17.40;99.90;;;;;;5065581;28;20494;-70
2023/09/28 02:20:15;;;;;;;10.57;7.05;;;17.40;99.90;;;;;;5059239;28;21441;-70
2023/09/28 02:22:46;;;;;;;9.80;7.63;;;17.30;99.90;;;;;;5066943;28;20036;-70
2023/09/28 02:25:17;;;;;;;10.68;7.35;;;17.30;99.90;;;;;;5068201;28;20040;-70
2023/09/28 02:27:43;;;;;;;9.18;6.70;;;17.30;99.90;;;;;;5060627;28;20045;-70
2023/09/28 02:30:14;;;;;;;12.48;7.28;;;17.20;99.90;;;;;;5068454;28;20498;-70
2023/09/28 02:32:40;;;;;;;10.00;7.05;;;17.20;99.90;;;;;;5064787;28;20040;-70
2023/09/28 02:35:10;;;;;;;10.27;7.72;;;17.20;99.90;;;;;;5066632;28;20387;-70
2023/09/28 02:37:36;;;;;;;9.15;7.40;;;17.10;99.90;;;;;;5067406;28;20111;-70
2023/09/28 02:40:05;;;;;;;9.32;7.40;;;17.10;99.90;;;;;;5064560;28;20130;-70
2023/09/28 02:42:31;;;;;;;11.75;7.05;;;17.10;99.90;;;;;;5058672;28;20055;-70
2023/09/28 02:44:58;;;;;;;9.60;7.82;;;17.10;99.90;;;;;;5059218;28;20497;-70
2023/09/28 02:47:24;;;;;;;9.07;7.63;;;17.10;99.90;;;;;;5060699;28;20411;-70
2023/09/28 02:49:49;;;;;;;10.98;7.97;;;17.00;99.90;;;;;;5060747;28;20040;-70
2023/09/28 02:52:16;;;;;;;10.25;7.70;;;17.00;99.90;;;;;;5065331;28;20048;-70
2023/09/28 02:54:42;;;;;;;11.63;8.02;;;17.00;99.90;;;;;;5070468;28;20052;-70
2023/09/28 02:57:07;;;;;;;10.98;7.72;;;17.00;99.90;;;;;;5057187;28;20052;-70
2023/09/28 02:59:33;;;;;;;9.95;7.68;;;16.90;99.90;;;;;;5055145;28;20521;-70
2023/09/28 03:01:58;;;;;;;11.82;7.53;;;17.00;99.90;;;;;;5061915;28;20039;-70
2023/09/28 03:04:24;;;;;;;11.07;7.47;;;16.90;99.90;;;;;;5061824;28;20037;-70
2023/09/28 03:06:52;;;;;;;12.05;7.35;;;16.90;99.90;;;;;;5056923;28;20064;-70
2023/09/28 03:09:19;;;;;;;13.52;7.85;;;16.90;99.90;;;;;;5053131;28;20041;-70
2023/09/28 03:11:45;;;;;;;11.00;7.20;;;16.80;99.90;;;;;;5062983;28;20074;-70
2023/09/28 03:14:11;;;;;;;11.38;7.40;;;16.80;99.90;;;;;;5056039;28;20503;-70
2023/09/28 03:16:37;;;;;;;9.52;7.18;;;16.80;99.90;;;;;;5066399;28;20124;-70
2023/09/28 03:19:03;;;;;;;10.73;7.00;;;16.80;99.90;;;;;;5062901;28;20119;-70
2023/09/28 03:21:29;;;;;;;10.18;7.38;;;16.80;99.90;;;;;;5069913;28;20123;-70
2023/09/28 03:23:57;;;;;;;10.43;8.02;;;16.70;99.90;;;;;;5060729;28;20384;-70
2023/09/28 03:26:23;;;;;;;10.80;7.38;;;16.70;99.90;;;;;;5058375;28;20048;-70
2023/09/28 03:28:48;;;;;;;9.27;7.28;;;16.70;99.90;;;;;;5057014;28;20434;-70
2023/09/28 03:31:14;;;;;;;12.15;7.72;;;16.70;99.90;;;;;;5070159;28;20074;-70
2023/09/28 03:33:40;;;;;;;10.77;6.78;;;16.70;99.90;;;;;;5066489;28;20033;-70
2023/09/28 03:36:06;;;;;;;10.43;7.30;;;16.70;99.90;;;;;;5069819;28;20044;-70
2023/09/28 03:38:32;;;;;;;9.68;6.85;;;16.70;99.90;;;;;;5069353;28;20029;-70
2023/09/28 03:40:58;;;;;;;10.45;6.75;;;16.70;99.90;;;;;;5069833;28;20040;-70
2023/09/28 03:43:24;;;;;;;10.93;6.95;;;16.70;99.90;;;;;;5063621;28;20402;-70
2023/09/28 03:45:50;;;;;;;10.80;6.88;;;16.70;99.90;;;;;;5069273;28;20044;-70
2023/09/28 03:48:15;;;;;;;8.98;6.78;;;16.60;99.90;;;;;;5069829;28;20041;-70
2023/09/28 03:50:41;;;;;;;10.10;7.20;;;16.60;99.90;;;;;;5063580;28;20081;-70
2023/09/28 03:53:07;;;;;;;12.13;6.85;;;16.60;99.90;;;;;;5068884;28;20418;-70
2023/09/28 03:55:32;;;;;;;12.63;6.50;;;16.60;99.90;;;;;;5067359;28;20076;-70
2023/09/28 03:58:01;;;;;;;9.05;7.22;;;16.60;99.90;;;;;;5069439;28;20125;-70
2023/09/28 04:00:27;;;;;;;12.45;7.30;;;16.60;99.90;;;;;;5070711;28;20093;-70
2023/09/28 04:02:53;;;;;;;10.95;7.50;;;16.50;99.90;;;;;;5065704;28;20504;-70
2023/09/28 04:05:19;;;;;;;12.15;7.93;;;16.50;99.90;;;;;;5069211;28;20036;-70
2023/09/28 04:07:44;;;;;;;14.27;7.72;;;16.50;99.90;;;;;;5069274;28;20066;-70
2023/09/28 04:10:11;;;;;;;9.48;7.15;;;16.50;99.90;;;;;;5069677;28;20071;-70
2023/09/28 04:12:37;;;;;;;9.18;6.97;;;16.50;99.90;;;;;;5068918;28;20059;-71
2023/09/28 04:15:04;;;;;;;9.38;6.72;;;16.50;99.90;;;;;;5071882;28;20041;-71
2023/09/28 04:17:30;;;;;;;11.23;7.20;;;16.40;99.90;;;;;;5069989;28;20037;-71
2023/09/28 04:19:55;;;;;;;10.35;7.18;;;16.40;99.90;;;;;;5064145;28;20483;-70
2023/09/28 04:22:21;;;;;;;10.43;7.25;;;16.40;99.90;;;;;;5065796;28;20117;-71
2023/09/28 04:24:47;;;;;;;10.70;7.43;;;16.40;99.90;;;;;;5063510;28;20384;-70
2023/09/28 04:27:12;;;;;;;10.75;7.30;;;16.40;99.90;;;;;;5050311;28;20045;-71
2023/09/28 04:29:38;;;;;;;9.18;7.32;;;16.40;99.90;;;;;;5059396;28;20040;-71
2023/09/28 04:32:04;;;;;;;13.77;7.40;;;16.40;99.90;;;;;;5062536;28;20600;-71
2023/09/28 04:34:30;;;;;;;12.80;7.47;;;16.30;99.90;;;;;;5062653;28;20041;-71
2023/09/28 04:36:59;;;;;;;10.73;7.72;;;16.30;99.90;;;;;;5064957;28;20399;-72
2023/09/28 04:39:26;;;;;;;11.30;7.70;;;16.30;99.90;;;;;;5067537;28;20052;-72
2023/09/28 04:41:53;;;;;;;11.27;7.72;;;16.30;99.90;;;;;;5061548;28;20044;-71
2023/09/28 04:44:20;;;;;;;11.15;7.82;;;16.30;99.90;;;;;;5057126;28;20487;-72
2023/09/28 04:46:46;;;;;;;12.35;8.07;;;16.30;99.90;;;;;;5060152;28;20499;-72
2023/09/28 04:49:12;;;;;;;11.25;8.23;;;16.30;99.90;;;;;;5064074;28;20304;-72
2023/09/28 04:51:38;;;;;;;11.18;7.72;;;16.20;99.90;;;;;;5071591;28;20044;-72
2023/09/28 04:54:04;;;;;;;11.75;8.30;;;16.20;99.90;;;;;;5073343;28;20086;-73
2023/09/28 04:56:31;;;;;;;13.50;7.85;;;16.30;99.90;;;;;;5064776;28;20119;-71
2023/09/28 04:58:59;;;;;;;12.40;7.85;;;16.20;99.90;;;;;;5064264;28;20395;-71
2023/09/28 05:01:25;;;;;;;11.80;7.90;;;16.30;99.90;;;;;;5062163;28;20098;-72
2023/09/28 05:03:50;;;;;;;11.90;7.65;;;16.20;99.90;;;;;;5063770;28;20048;-71
2023/09/28 05:06:16;;;;;;;12.32;8.38;;;16.20;99.90;;;;;;5062099;28;20059;-71
2023/09/28 05:08:42;;;;;;;10.45;7.47;;;16.20;99.90;;;;;;5062427;28;20048;-71
2023/09/28 05:11:08;;;;;;;13.45;8.25;;;16.20;99.90;;;;;;5060318;28;20095;-72
2023/09/28 05:13:35;;;;;;;16.63;8.10;;;16.20;99.90;;;;;;5073291;28;20075;-72
2023/09/28 05:16:01;;;;;;;12.70;7.85;;;16.20;99.90;;;;;;5064867;28;20106;-71
2023/09/28 05:18:27;;;;;;;10.45;7.65;;;16.20;99.90;;;;;;5069651;28;20040;-72
2023/09/28 05:20:52;;;;;;;13.45;7.38;;;16.20;99.90;;;;;;5061177;28;20041;-71
2023/09/28 05:23:18;;;;;;;11.43;7.72;;;16.20;99.90;;;;;;5067831;28;20059;-72
2023/09/28 05:25:44;;;;;;;12.20;7.85;;;16.20;99.90;;;;;;5060112;28;20399;-71
2023/09/28 05:28:10;;;;;;;10.00;6.93;;;16.20;99.90;;;;;;5065089;28;20040;-72
2023/09/28 05:30:36;;;;;;;12.55;6.63;;;16.20;99.90;;;;;;5059833;28;20036;-72
2023/09/28 05:33:02;;;;;;;11.90;6.85;;;16.20;99.90;;;;;;5059774;28;20044;-72
2023/09/28 05:35:27;;;;;;;12.27;6.95;;;16.20;99.90;;;;;;5063125;28;20036;-71
2023/09/28 05:37:53;;;;;;;13.02;7.15;;;16.20;99.90;;;;;;5063310;28;20087;-72
2023/09/28 05:40:18;;;;;;;10.43;6.50;;;16.20;99.90;;;;;;5067013;28;20040;-72
2023/09/28 05:42:44;;;;;;;11.32;6.70;;;16.20;99.90;;;;;;5070928;28;20461;-72
2023/09/28 05:45:10;;;;;;;11.63;6.85;;;16.20;99.90;;;;;;5070532;28;20495;-72
2023/09/28 05:47:36;;;;;;;13.18;7.00;;;16.20;99.90;;;;;;5071346;28;20036;-71
2023/09/28 05:50:04;;;;;;;12.25;6.45;;;16.20;99.90;;;;;;5071151;28;20695;-72
2023/09/28 05:52:30;;;;;;;14.48;7.18;;;16.20;99.90;;;;;;5063120;28;20054;-72
2023/09/28 05:54:55;;;;;;;11.63;6.35;;;16.20;99.90;;;;;;5068763;28;20025;-72
2023/09/28 05:57:22;;;;;;;11.23;6.28;;;16.20;99.90;;;;;;5061949;28;20051;-72
2023/09/28 05:59:48;;;;;;;10.80;6.82;;;16.30;99.90;;;;;;5065856;28;20037;-72
2023/09/28 06:02:14;;;;;;;11.60;5.82;;;16.30;99.90;;;;;;5059307;28;20563;-72
2023/09/28 06:04:41;;;;;;;15.95;6.50;;;16.30;99.90;;;;;;5058647;28;20053;-72
2023/09/28 06:07:06;;;;;;;14.80;6.45;;;16.30;99.90;;;;;;5059012;28;20056;-71
2023/09/28 06:09:32;;;;;;;13.23;6.40;;;16.30;99.90;;;;;;5068208;28;20033;-72
2023/09/28 06:11:58;;;;;;;15.20;5.72;;;16.30;99.90;;;;;;5057442;28;20037;-72
2023/09/28 06:14:24;;;;;;;13.98;6.13;;;16.30;99.90;;;;;;5067530;28;20041;-71
2023/09/28 06:16:49;;;;;;;16.23;5.70;;;16.30;99.90;;;;;;5071647;28;20154;-71
2023/09/28 06:19:15;;;;;;;15.27;5.75;;;16.30;99.90;;;;;;5060931;28;20509;-72
2023/09/28 06:21:41;;;;;;;15.10;5.38;;;16.20;99.90;;;;;;5073405;28;20045;-72
2023/09/28 06:24:06;;;;;;;14.85;5.22;;;16.30;99.90;;;;;;5054387;28;20040;-72
2023/09/28 06:26:33;;;;;;;18.45;6.15;;;16.20;99.90;;;;;;5069200;28;20081;-72
2023/09/28 06:28:59;;;;;;;19.48;5.47;;;16.30;99.90;;;;;;5055391;28;20039;-72
2023/09/28 06:31:25;;;;;;;17.92;5.57;;;16.30;99.90;;;;;;5063776;28;20040;-72
2023/09/28 06:33:51;;;;;;;17.90;5.88;;;16.30;99.90;;;;;;5061017;28;20464;-71
2023/09/28 06:36:18;;;;;;;26.88;5.30;;;16.30;99.90;;;;;;5071258;28;20059;-72
2023/09/28 06:38:43;;;;;;;16.70;4.97;;;16.40;99.90;;;;;;5056390;28;20478;-71
2023/09/28 06:41:09;;;;;;;15.77;5.03;;;16.40;99.90;;;;;;5070769;28;20120;-72
2023/09/28 06:43:35;;;;;;;18.40;4.90;;;16.40;99.90;;;;;;5060352;28;20037;-72
2023/09/28 06:46:01;;;;;;;18.20;5.10;;;16.40;99.90;;;;;;5072017;28;20064;-72
2023/09/28 06:48:28;;;;;;;16.58;4.68;;;16.40;99.90;;;;;;5068738;28;20428;-71
2023/09/28 06:50:59;;;;;;;24.02;4.90;;;16.40;99.90;;;;;;5068640;28;20478;-71
2023/09/28 06:53:25;;;;;;;25.05;5.32;;;16.40;99.90;;;;;;5062916;28;20406;-71
2023/09/28 06:55:52;;;;;;;21.77;5.13;;;16.40;99.90;;;;;;5069413;28;20040;-71
2023/09/28 06:58:18;;;;;;;20.55;5.03;;;16.40;99.90;;;;;;5059804;28;20407;-71
2023/09/28 07:00:46;;;;;;;23.50;5.20;;;16.50;99.90;;;;;;5065476;28;20033;-71
2023/09/28 07:03:13;;;;;;;25.95;5.13;;;16.50;99.90;;;;;;5060033;28;20128;-71
2023/09/28 07:05:40;;;;;;;24.55;5.15;;;16.50;99.90;;;;;;5066752;28;20033;-71
2023/09/28 07:08:06;;;;;;;21.20;5.18;;;16.50;99.90;;;;;;5063711;28;20109;-71
2023/09/28 07:10:33;;;;;;;26.33;5.40;;;16.50;99.90;;;;;;5062020;28;20059;-71
2023/09/28 07:13:05;;;;;;;21.70;5.13;;;16.60;99.90;;;;;;5065397;28;20454;-70
2023/09/28 07:15:31;;;;;;;29.50;6.28;;;16.60;99.90;;;;;;5056263;28;20049;-70
2023/09/28 07:17:57;;;;;;;24.95;4.90;;;16.60;99.90;;;;;;5073439;28;20036;-70
2023/09/28 07:20:23;;;;;;;26.30;5.53;;;16.70;99.90;;;;;;5056253;28;20103;-70
2023/09/28 07:22:49;;;;;;;32.20;5.65;;;16.70;99.90;;;;;;5061372;28;20036;-70
2023/09/28 07:25:15;;;;;;;29.08;6.03;;;16.70;99.90;;;;;;5061233;28;20518;-70
2023/09/28 07:27:42;;;;;;;20.27;5.35;;;16.80;99.90;;;;;;5066243;28;20076;-70
2023/09/28 07:30:08;;;;;;;23.77;5.28;;;16.80;99.90;;;;;;5068476;28;20036;-70
2023/09/28 07:32:34;;;;;;;26.70;5.80;;;16.80;99.90;;;;;;5064560;28;20127;-70
2023/09/28 07:35:02;;;;;;;19.85;4.70;;;16.80;99.90;;;;;;5068673;28;20041;-70
2023/09/28 07:37:28;;;;;;;29.17;6.15;;;16.80;99.90;;;;;;5061257;28;20139;-70
2023/09/28 07:39:54;;;;;;;19.42;5.40;;;16.90;99.90;;;;;;5060521;28;20565;-70
2023/09/28 07:42:19;;;;;;;24.13;5.20;;;16.90;99.90;;;;;;5071027;28;20123;-70
2023/09/28 07:44:47;;;;;;;21.08;5.28;;;16.90;99.90;;;;;;5066428;28;20115;-70
2023/09/28 07:47:13;;;;;;;17.15;4.47;;;17.00;99.90;;;;;;5065538;28;20060;-70
2023/09/28 07:49:40;;;;;;;19.48;4.90;;;17.10;99.90;;;;;;5058901;28;20029;-70
2023/09/28 07:52:08;;;;;;;22.40;4.45;;;17.10;99.90;;;;;;5067555;28;20482;-70
2023/09/28 07:54:35;;;;;;;20.30;4.82;;;17.20;99.90;;;;;;5067404;28;20483;-70
2023/09/28 07:57:04;;;;;;;21.00;5.40;;;17.30;99.90;;;;;;5058068;28;20625;-70
2023/09/28 07:59:34;;;;;;;26.20;5.57;;;17.40;99.90;;;;;;5059013;28;20029;-71
2023/09/28 08:02:00;;;;;;;23.27;5.55;;;17.40;99.90;;;;;;5066181;28;20062;-70
2023/09/28 08:04:26;;;;;;;19.35;4.57;;;17.50;99.90;;;;;;5069418;28;20047;-70
2023/09/28 08:06:52;;;;;;;23.05;5.00;;;17.60;99.90;;;;;;5058817;28;20033;-70
2023/09/28 08:09:19;;;;;;;22.20;5.10;;;17.70;99.90;;;;;;5062308;28;20048;-70
2023/09/28 08:11:48;;;;;;;19.23;4.50;;;17.80;99.90;;;;;;5054327;28;20098;-70
2023/09/28 08:14:15;;;;;;;25.77;5.65;;;17.80;99.90;;;;;;5055139;28;20499;-70
2023/09/28 08:16:45;;;;;;;22.40;4.43;;;17.80;99.90;;;;;;5057594;28;20036;-70
2023/09/28 08:19:11;;;;;;;27.88;5.15;;;17.80;99.90;;;;;;5058445;28;20040;-70
2023/09/28 08:21:38;;;;;;;26.23;5.15;;;17.90;99.90;;;;;;5054868;28;20045;-71
2023/09/28 08:24:08;;;;;;;21.88;5.05;;;17.90;99.90;;;;;;5061581;28;20045;-70
2023/09/28 08:26:37;;;;;;;24.02;5.30;;;17.90;99.90;;;;;;5064364;28;20504;-70
2023/09/28 08:29:04;;;;;;;26.60;5.78;;;17.90;99.90;;;;;;5063167;28;20123;-70
2023/09/28 08:31:31;;;;;;;17.42;4.50;;;18.10;99.90;;;;;;5065325;28;20066;-70
2023/09/28 08:33:59;;;;;;;26.27;4.80;;;18.00;99.90;;;;;;5066667;28;20402;-70
2023/09/28 08:36:25;;;;;;;23.40;4.50;;;18.00;99.90;;;;;;5063327;28;20045;-70
2023/09/28 08:38:51;;;;;;;22.63;4.95;;;18.00;99.90;;;;;;5065299;28;20037;-70
2023/09/28 08:41:35;;;;;;;23.70;4.18;;;18.00;99.90;;;;;;5065635;28;20044;-70
2023/09/28 08:44:05;;;;;;;24.90;4.68;;;18.10;99.90;;;;;;5072331;28;20041;-70
2023/09/28 08:46:38;;;;;;;28.05;4.85;;;18.10;99.90;;;;;;5060489;28;20518;-70
2023/09/28 08:49:07;;;;;;;26.33;5.45;;;18.20;99.90;;;;;;5058667;28;20052;-71
2023/09/28 08:51:38;;;;;;;23.38;5.15;;;18.30;99.90;;;;;;5072202;28;20044;-71
2023/09/28 08:54:07;;;;;;;21.65;4.90;;;18.30;99.90;;;;;;5072263;28;20036;-71
2023/09/28 08:56:35;;;;;;;25.92;4.97;;;18.30;99.90;;;;;;5060197;28;20052;-70
2023/09/28 08:59:02;;;;;;;22.80;4.40;;;18.40;99.90;;;;;;5057437;28;20527;-70
2023/09/28 09:01:30;;;;;;;26.17;5.18;;;18.40;99.90;;;;;;5070568;28;20090;-70
2023/09/28 09:03:57;;;;;;;28.52;5.22;;;18.40;99.90;;;;;;5071549;28;20039;-70
2023/09/28 09:06:24;;;;;;;25.45;5.30;;;18.40;99.90;;;;;;5066410;28;20153;-71
2023/09/28 09:08:51;;;;;;;24.52;4.60;;;18.50;99.90;;;;;;5061740;28;20029;-71
2023/09/28 09:11:18;;;;;;;28.17;5.35;;;18.50;99.90;;;;;;5070167;28;20036;-70
2023/09/28 09:13:48;;;;;;;24.17;4.93;;;18.50;99.90;;;;;;5060193;28;20036;-70
2023/09/28 09:16:14;;;;;;;21.95;5.88;;;18.60;99.90;;;;;;5065099;28;20489;-70
2023/09/28 09:18:41;;;;;;;23.20;5.10;;;18.60;99.90;;;;;;5062928;28;20129;-71
2023/09/28 09:21:07;;;;;;;24.10;5.63;;;18.60;99.90;;;;;;5058869;28;20398;-70
2023/09/28 09:23:33;;;;;;;18.15;4.32;;;18.70;99.90;;;;;;5063782;28;20039;-71
2023/09/28 09:25:59;;;;;;;26.63;5.20;;;18.50;99.90;;;;;;5062412;28;20045;-71
2023/09/28 09:28:29;;;;;;;26.58;5.10;;;18.70;99.90;;;;;;5060375;28;20043;-70
2023/09/28 09:30:55;;;;;;;24.20;4.70;;;18.80;99.90;;;;;;5063902;28;20040;-71
2023/09/28 09:33:22;;;;;;;26.23;5.00;;;18.80;99.90;;;;;;5066368;28;20120;-71
2023/09/28 09:35:50;;;;;;;27.50;5.35;;;18.80;99.90;;;;;;5064443;28;20086;-71
2023/09/28 09:38:22;;;;;;;24.42;5.75;;;18.80;99.90;;;;;;5058059;28;20049;-70
2023/09/28 09:40:58;;;;;;;22.05;4.50;;;18.90;99.90;;;;;;5066438;28;20044;-71
2023/09/28 09:43:24;;;;;;;20.77;4.28;;;19.00;99.90;;;;;;5063444;28;20490;-71
2023/09/28 09:45:49;;;;;;;26.50;4.93;;;19.00;99.90;;;;;;5061239;28;20043;-71
2023/09/28 09:48:16;;;;;;;24.02;4.95;;;19.10;99.90;;;;;;5063281;28;20375;-71
2023/09/28 09:50:43;;;;;;;20.08;4.32;;;19.10;99.90;;;;;;5058496;28;20032;-71
2023/09/28 09:53:10;;;;;;;25.40;4.38;;;19.10;99.90;;;;;;5063432;28;20025;-71
2023/09/28 09:55:40;;;;;;;21.45;5.20;;;19.10;99.90;;;;;;5051282;28;20100;-71
2023/09/28 09:58:09;;;;;;;24.60;5.07;;;19.10;99.90;;;;;;5053235;28;20120;-70
2023/09/28 10:00:37;;;;;;;19.05;5.90;;;19.00;99.90;;;;;;5055270;28;20040;-70
2023/09/28 10:03:05;;;;;;;29.40;4.78;;;19.00;99.90;;;;;;5059825;28;20083;-71
2023/09/28 10:05:32;;;;;;;24.35;5.32;;;19.00;99.90;;;;;;5053402;28;20163;-71
2023/09/28 10:07:59;;;;;;;21.40;5.43;;;19.00;99.90;;;;;;5062507;28;20037;-70
2023/09/28 10:10:27;;;;;;;23.00;5.10;;;19.00;99.90;;;;;;5058304;28;20061;-70
2023/09/28 10:12:54;;;;;;;27.58;4.88;;;19.10;99.90;;;;;;5060377;28;20041;-71
2023/09/28 10:15:21;;;;;;;21.08;5.00;;;19.10;99.90;;;;;;5055219;28;20062;-70
2023/09/28 10:17:47;;;;;;;24.45;4.68;;;19.10;99.90;;;;;;5053509;28;20094;-70
2023/09/28 10:20:14;;;;;;;21.42;3.88;;;19.10;99.90;;;;;;5064494;28;20048;-70
2023/09/28 10:22:47;;;;;;;21.38;4.13;;;19.20;99.90;;;;;;5064417;28;20028;-71
2023/09/28 10:25:15;;;;;;;23.70;4.28;;;19.10;99.90;;;;;;5053694;28;20040;-71
2023/09/28 10:27:45;;;;;;;22.63;4.30;;;19.30;99.90;;;;;;5061280;28;20785;-71
2023/09/28 10:30:18;;;;;;;18.05;4.38;;;19.30;99.90;;;;;;5056866;28;20048;-71
2023/09/28 10:32:44;;;;;;;16.55;4.15;;;19.30;99.90;;;;;;5046379;28;20119;-71
2023/09/28 10:35:31;;;;;;;18.10;3.72;;;19.30;99.90;;;;;;5063348;28;20123;-71
2023/09/28 10:38:20;;;;;;;21.73;4.45;;;19.40;99.90;;;;;;5056021;28;20047;-71
2023/09/28 10:41:06;;;;;;;17.35;3.53;;;19.40;99.90;;;;;;5050458;28;20371;-70
2023/09/28 10:43:43;;;;;;;20.42;3.97;;;19.50;99.90;;;;;;5055261;28;20062;-70
2023/09/28 10:46:09;;;;;;;17.77;3.75;;;19.50;99.90;;;;;;5050220;28;20044;-71
2023/09/28 10:48:44;;;;;;;15.85;4.03;;;19.50;99.90;;;;;;5062124;28;20029;-70
2023/09/28 10:51:18;;;;;;;20.08;4.15;;;19.40;99.90;;;;;;5058702;28;20053;-70
2023/09/28 10:53:45;;;;;;;15.00;3.70;;;19.40;99.90;;;;;;5056387;28;20097;-70
2023/09/28 10:56:11;;;;;;;14.55;3.58;;;19.40;99.90;;;;;;5065465;28;20091;-71
2023/09/28 10:58:38;;;;;;;22.48;4.70;;;19.40;99.90;;;;;;5048177;28;20403;-71
2023/09/28 11:01:07;;;;;;;18.33;4.00;;;19.30;99.90;;;;;;5063754;28;20044;-71
2023/09/28 11:03:36;;;;;;;20.90;4.22;;;19.30;99.90;;;;;;5057657;28;20076;-71
2023/09/28 11:06:07;;;;;;;21.40;3.83;;;19.30;99.90;;;;;;5071006;28;20120;-71
2023/09/28 11:08:34;;;;;;;22.42;3.95;;;19.30;99.90;;;;;;5066249;28;20040;-71
2023/09/28 11:11:01;;;;;;;21.67;4.25;;;19.30;99.90;;;;;;5063875;28;20119;-71
2023/09/28 11:13:30;;;;;;;24.83;4.18;;;19.40;99.90;;;;;;5066615;28;20043;-71
2023/09/28 11:15:57;;;;;;;23.10;4.53;;;19.40;99.90;;;;;;5053895;28;20041;-71
2023/09/28 11:18:26;;;;;;;19.75;4.68;;;19.50;99.90;;;;;;5067677;28;20490;-71
2023/09/28 11:20:58;;;;;;;14.93;3.67;;;19.50;99.90;;;;;;5059015;28;20083;-71
2023/09/28 11:23:24;;;;;;;19.15;4.45;;;19.50;99.90;;;;;;5067064;28;20119;-71
2023/09/28 11:25:52;;;;;;;19.70;4.47;;;19.50;99.90;;;;;;5063288;28;20123;-73
2023/09/28 11:28:19;;;;;;;21.73;4.60;;;19.50;99.90;;;;;;5068576;28;20044;-73
2023/09/28 11:30:44;;;;;;;18.67;4.50;;;19.60;99.90;;;;;;5067698;28;20063;-72
2023/09/28 11:33:11;;;;;;;21.00;4.65;;;19.50;99.90;;;;;;5073279;28;20112;-72
2023/09/28 11:35:38;;;;;;;19.55;4.20;;;19.50;99.90;;;;;;5071141;28;20119;-72
2023/09/28 11:38:09;;;;;;;18.90;4.63;;;19.50;99.90;;;;;;5068615;28;20503;-73
2023/09/28 11:40:39;;;;;;;21.40;4.10;;;19.60;99.90;;;;;;5074532;28;20044;-73
2023/09/28 11:43:05;;;;;;;23.08;4.35;;;19.60;99.90;;;;;;5066824;28;20475;-73
2023/09/28 11:45:36;;;;;;;20.02;4.47;;;19.60;99.90;;;;;;5066201;28;20422;-73
2023/09/28 11:48:11;;;;;;;16.95;3.88;;;19.60;99.90;;;;;;5068984;28;20033;-73
2023/09/28 11:50:38;;;;;;;21.67;4.32;;;19.70;99.90;;;;;;5066126;28;20088;-71
2023/09/28 11:53:08;;;;;;;17.67;4.47;;;19.90;99.90;;;;;;5050896;28;20044;-73
2023/09/28 11:55:35;;;;;;;18.63;5.13;;;19.90;99.90;;;;;;5064292;28;20043;-73
2023/09/28 11:58:02;;;;;;;26.73;4.32;;;19.90;99.90;;;;;;5059262;28;20048;-73
2023/09/28 12:00:28;;;;;;;21.33;4.78;;;20.00;99.90;;;;;;5064448;28;20098;-73
2023/09/28 12:02:54;;;;;;;22.60;4.80;;;20.10;99.90;;;;;;5069712;28;20495;-73
2023/09/28 12:05:21;;;;;;;15.90;3.70;;;20.10;99.90;;;;;;5066700;28;20086;-73
2023/09/28 12:07:46;;;;;;;16.20;4.28;;;20.20;99.90;;;;;;5063283;28;20036;-73
2023/09/28 12:10:12;;;;;;;24.50;4.95;;;20.30;99.90;;;;;;5063224;28;20037;-73
2023/09/28 12:12:39;;;;;;;19.08;4.18;;;20.30;99.90;;;;;;5057979;28;20055;-73
2023/09/28 12:15:07;;;;;;;24.33;4.80;;;20.40;99.90;;;;;;5071014;28;20041;-73
2023/09/28 12:17:33;;;;;;;19.23;4.68;;;20.50;99.90;;;;;;5071012;28;20047;-73
2023/09/28 12:19:59;;;;;;;27.92;5.57;;;20.60;99.90;;;;;;5074077;28;20076;-73
2023/09/28 12:22:24;;;;;;;22.02;5.15;;;20.60;99.90;;;;;;5053809;28;20025;-73
2023/09/28 12:24:50;;;;;;;19.38;4.43;;;20.60;99.90;;;;;;5057792;28;20048;-73
2023/09/28 12:27:17;;;;;;;19.10;4.18;;;20.60;99.90;;;;;;5060156;28;20044;-73
2023/09/28 12:29:43;;;;;;;24.58;5.07;;;20.50;99.90;;;;;;5070677;28;20044;-73
2023/09/28 12:32:09;;;;;;;23.05;4.50;;;20.50;99.90;;;;;;5060965;28;20452;-73
2023/09/28 12:34:35;;;;;;;33.45;5.45;;;20.50;99.90;;;;;;5071350;28;20124;-73
2023/09/28 12:37:01;;;;;;;19.90;4.72;;;20.50;99.90;;;;;;5059788;28;20040;-73